createdAt,value
2023-04-16T00:02:46.439Z,10.55
2023-04-16T00:05:49.800Z,9.38
2023-04-16T00:08:54.319Z,8.52
2023-04-16T00:11:57.666Z,10.30
2023-04-16T00:15:00.733Z,10.75
2023-04-16T00:18:04.036Z,8.63
2023-04-16T00:21:08.017Z,9.65
2023-04-16T00:24:12.454Z,12.13
2023-04-16T00:27:16.000Z,8.43
2023-04-16T00:30:19.126Z,12.38
2023-04-16T00:33:22.545Z,11.10
2023-04-16T00:36:27.031Z,12.50
2023-04-16T00:39:31.531Z,7.72
2023-04-16T00:42:34.911Z,10.65
2023-04-16T00:45:38.284Z,10.85
2023-04-16T00:48:42.026Z,11.95
2023-04-16T00:51:45.529Z,7.53
2023-04-16T00:54:50.257Z,11.05
2023-04-16T00:57:53.391Z,10.55
2023-04-16T01:00:56.924Z,11.32
2023-04-16T01:04:00.303Z,9.05
2023-04-16T01:07:03.728Z,10.27
2023-04-16T01:10:09.175Z,10.15
2023-04-16T01:13:12.685Z,12.50
2023-04-16T01:16:15.858Z,9.98
2023-04-16T01:19:19.023Z,10.18
2023-04-16T01:22:23.684Z,10.57
2023-04-16T01:25:33.651Z,10.48
2023-04-16T01:28:37.079Z,11.43
2023-04-16T01:31:40.429Z,12.95
2023-04-16T01:34:52.354Z,11.15
2023-04-16T01:37:56.980Z,8.05
2023-04-16T01:41:01.838Z,13.30
2023-04-16T01:44:05.790Z,12.55
2023-04-16T01:47:09.521Z,10.82
2023-04-16T01:50:12.816Z,12.48
2023-04-16T01:53:17.338Z,9.85
2023-04-16T01:56:20.569Z,14.73
2023-04-16T01:59:23.781Z,11.00
2023-04-16T02:02:29.094Z,11.70
2023-04-16T02:05:32.407Z,12.38
2023-04-16T02:08:37.273Z,13.68
2023-04-16T02:11:40.523Z,13.68
2023-04-16T02:14:44.054Z,10.50
2023-04-16T02:17:53.850Z,11.18
2023-04-16T02:20:59.719Z,12.40
2023-04-16T02:24:04.510Z,15.23
2023-04-16T02:27:07.920Z,15.60
2023-04-16T02:30:12.452Z,14.68
2023-04-16T02:33:16.482Z,15.93
2023-04-16T02:36:31.746Z,11.73
2023-04-16T02:39:36.766Z,12.73
2023-04-16T02:42:39.939Z,13.43
2023-04-16T02:45:44.782Z,12.20
2023-04-16T02:48:48.058Z,11.52
2023-04-16T02:51:51.224Z,12.48
2023-04-16T02:54:55.706Z,12.82
2023-04-16T02:57:58.953Z,11.70
2023-04-16T03:01:02.277Z,15.80
2023-04-16T03:04:05.977Z,11.10
2023-04-16T03:07:11.123Z,13.52
2023-04-16T03:10:15.775Z,10.80
2023-04-16T03:13:18.935Z,13.48
2023-04-16T03:16:22.427Z,12.18
2023-04-16T03:19:25.806Z,12.48
2023-04-16T03:22:28.962Z,9.60
2023-04-16T03:25:35.490Z,11.70
2023-04-16T03:28:39.052Z,13.20
2023-04-16T03:34:57.323Z,15.15
2023-04-16T03:38:00.985Z,13.23
2023-04-16T03:41:05.059Z,9.40
2023-04-16T03:44:12.089Z,10.65
2023-04-16T03:47:15.462Z,13.10
2023-04-16T03:50:20.408Z,13.25
2023-04-16T03:53:24.353Z,12.88
2023-04-16T03:56:27.596Z,11.95
2023-04-16T03:59:30.959Z,14.48
2023-04-16T04:02:34.907Z,11.98
2023-04-16T04:05:40.986Z,17.13
2023-04-16T04:11:51.429Z,14.18
2023-04-16T04:14:54.694Z,14.20
2023-04-16T04:17:58.075Z,12.40
2023-04-16T04:21:06.371Z,11.52
2023-04-16T04:24:10.695Z,12.95
2023-04-16T04:27:13.859Z,13.35
2023-04-16T04:30:17.004Z,14.80
2023-04-16T04:33:20.868Z,18.52
2023-04-16T04:36:27.219Z,16.08
2023-04-16T04:39:31.061Z,12.98
2023-04-16T04:42:34.312Z,15.90
2023-04-16T04:45:38.070Z,11.55
2023-04-16T04:48:42.125Z,15.05
2023-04-16T04:51:46.814Z,12.23
2023-04-16T04:54:49.925Z,14.82
2023-04-16T04:57:53.065Z,13.65
2023-04-16T05:00:56.803Z,12.13
2023-04-16T05:03:59.947Z,15.15
2023-04-16T05:07:04.748Z,16.27
2023-04-16T05:10:09.423Z,16.13
2023-04-16T05:13:12.796Z,17.50
2023-04-16T05:16:16.149Z,14.85
2023-04-16T05:19:19.344Z,16.48
2023-04-16T05:22:24.102Z,15.45
2023-04-16T05:25:34.326Z,13.77
2023-04-16T05:28:37.491Z,10.50
2023-04-16T05:31:40.970Z,13.25
2023-04-16T05:34:44.070Z,12.43
2023-04-16T05:37:48.625Z,14.90
2023-04-16T05:40:51.758Z,14.48
2023-04-16T05:43:54.917Z,14.07
2023-04-16T05:46:58.144Z,17.08
2023-04-16T05:50:01.277Z,13.57
2023-04-16T05:53:08.178Z,12.52
2023-04-16T05:56:11.446Z,19.00
2023-04-16T05:59:14.530Z,15.77
2023-04-16T06:02:17.759Z,11.90
2023-04-16T06:05:21.189Z,16.83
2023-04-16T06:08:25.819Z,11.55
2023-04-16T06:11:30.851Z,9.18
2023-04-16T06:14:34.032Z,13.35
2023-04-16T06:17:37.255Z,10.85
2023-04-16T06:20:40.714Z,10.63
2023-04-16T06:23:45.186Z,10.80
2023-04-16T06:26:48.334Z,14.50
2023-04-16T06:29:51.747Z,10.77
2023-04-16T06:32:55.086Z,10.43
2023-04-16T06:35:58.296Z,15.35
2023-04-16T06:39:02.827Z,9.68
2023-04-16T06:42:06.220Z,8.90
2023-04-16T06:45:10.292Z,9.30
2023-04-16T06:48:13.510Z,7.88
2023-04-16T06:51:17.013Z,11.05
2023-04-16T06:54:21.504Z,11.85
2023-04-16T06:57:24.642Z,7.43
2023-04-16T07:00:28.005Z,9.15
2023-04-16T07:03:32.546Z,9.75
2023-04-16T07:06:35.841Z,8.70
2023-04-16T07:09:40.668Z,8.98
2023-04-16T07:12:43.897Z,8.85
2023-04-16T07:15:47.155Z,12.13
2023-04-16T07:18:50.431Z,8.98
2023-04-16T07:21:53.569Z,7.88
2023-04-16T07:24:58.028Z,11.80
2023-04-16T07:28:01.345Z,8.82
2023-04-16T07:31:04.950Z,9.85
2023-04-16T07:34:08.083Z,5.72
2023-04-16T07:37:11.292Z,6.35
2023-04-16T07:40:16.220Z,9.77
2023-04-16T07:43:19.379Z,9.65
2023-04-16T07:46:22.794Z,8.80
2023-04-16T07:49:25.913Z,8.27
2023-04-16T07:52:29.093Z,11.25
2023-04-16T07:55:35.649Z,7.68
2023-04-16T07:58:38.760Z,5.30
2023-04-16T08:01:42.708Z,8.18
2023-04-16T08:04:46.110Z,6.50
2023-04-16T08:07:49.327Z,6.55
2023-04-16T08:10:55.926Z,5.50
2023-04-16T08:13:59.196Z,13.10
2023-04-16T08:17:02.353Z,7.03
2023-04-16T08:20:06.496Z,6.25
2023-04-16T08:23:09.749Z,5.50
2023-04-16T08:26:14.303Z,5.45
2023-04-16T08:29:17.689Z,5.10
2023-04-16T08:32:20.960Z,5.18
2023-04-16T08:35:24.197Z,6.18
2023-04-16T08:38:27.481Z,5.88
2023-04-16T08:41:33.792Z,4.88
2023-04-16T08:44:42.751Z,5.05
2023-04-16T08:47:48.026Z,4.70
2023-04-16T08:50:53.757Z,6.15
2023-04-16T08:54:03.787Z,4.40
2023-04-16T08:57:11.778Z,3.92
2023-04-16T09:03:19.690Z,3.90
2023-04-16T09:06:23.591Z,3.65
2023-04-16T09:09:27.324Z,2.42
2023-04-16T09:12:32.721Z,2.38
2023-04-16T09:15:36.665Z,2.65
2023-04-16T09:18:40.488Z,2.33
2023-04-16T09:21:46.551Z,2.85
2023-04-16T09:24:49.639Z,5.45
2023-04-16T09:27:54.109Z,2.40
2023-04-16T09:34:58.766Z,1.92
2023-04-16T09:38:01.924Z,6.40
2023-04-16T09:41:08.924Z,2.85
2023-04-16T09:44:12.077Z,2.00
2023-04-16T09:47:15.394Z,2.60
2023-04-16T09:50:21.280Z,3.03
2023-04-16T09:53:26.361Z,2.42
2023-04-16T09:56:30.393Z,4.80
2023-04-16T09:59:36.468Z,1.73
2023-04-16T10:02:42.821Z,3.47
2023-04-16T10:05:47.638Z,2.90
2023-04-16T10:08:51.702Z,3.42
2023-04-16T10:11:54.885Z,2.97
2023-04-16T10:14:58.113Z,4.30
2023-04-16T10:18:01.503Z,4.43
2023-04-16T10:21:06.546Z,3.80
2023-04-16T10:24:10.417Z,2.45
2023-04-16T10:27:13.725Z,2.65
2023-04-16T10:30:18.688Z,4.10
2023-04-16T10:33:23.119Z,5.13
2023-04-16T10:36:27.670Z,4.88
2023-04-16T10:39:30.985Z,6.45
2023-04-16T10:42:34.562Z,4.03
2023-04-16T10:45:39.272Z,7.65
2023-04-16T10:48:49.852Z,7.10
2023-04-16T10:51:56.671Z,7.45
2023-04-16T10:55:00.855Z,7.95
2023-04-16T10:58:04.029Z,7.03
2023-04-16T11:01:14.519Z,8.48
2023-04-16T11:04:46.033Z,6.65
2023-04-16T11:07:50.677Z,5.72
2023-04-16T11:10:54.768Z,7.85
2023-04-16T11:13:58.032Z,9.10
2023-04-16T11:17:04.361Z,11.57
2023-04-16T11:20:19.301Z,12.68
2023-04-16T11:23:24.235Z,9.90
2023-04-16T11:26:29.429Z,8.20
2023-04-16T11:29:32.617Z,12.75
2023-04-16T11:32:37.263Z,8.30
2023-04-16T11:35:43.278Z,7.93
2023-04-16T11:38:48.215Z,5.10
2023-04-16T11:41:52.739Z,6.20
2023-04-16T11:44:57.149Z,6.18
2023-04-16T11:48:00.524Z,4.72
2023-04-16T11:51:03.683Z,4.85
2023-04-16T11:54:11.145Z,5.10
2023-04-16T11:57:15.221Z,4.72
2023-04-16T12:00:19.036Z,4.65
2023-04-16T12:03:39.470Z,5.30
2023-04-16T12:07:05.046Z,5.75
2023-04-16T12:10:11.246Z,4.70
2023-04-16T12:13:16.440Z,4.55
2023-04-16T12:16:21.589Z,5.75
2023-04-16T12:19:24.893Z,5.90
2023-04-16T12:22:29.651Z,5.13
2023-04-16T12:25:35.344Z,3.80
2023-04-16T12:28:40.225Z,3.47
2023-04-16T12:31:43.727Z,4.00
2023-04-16T12:34:51.548Z,2.65
2023-04-16T12:37:54.752Z,2.10
2023-04-16T12:41:02.165Z,2.60
2023-04-16T12:44:08.960Z,3.92
2023-04-16T12:47:12.474Z,1.95
2023-04-16T12:50:15.615Z,2.20
2023-04-16T12:53:18.883Z,3.83
2023-04-16T12:56:23.466Z,2.55
2023-04-16T12:59:26.641Z,1.60
2023-04-16T13:02:30.133Z,2.45
2023-04-16T13:05:33.553Z,1.90
2023-04-16T13:08:37.458Z,3.55
2023-04-16T13:11:41.936Z,4.68
2023-04-16T13:14:45.419Z,3.72
2023-04-16T13:17:48.607Z,4.75
2023-04-16T13:20:51.994Z,3.15
2023-04-16T13:23:55.210Z,4.72
2023-04-16T13:26:59.797Z,2.72
2023-04-16T13:30:02.956Z,2.00
2023-04-16T13:33:06.240Z,4.10
2023-04-16T13:36:09.542Z,1.88
2023-04-16T13:39:12.733Z,2.75
2023-04-16T13:42:17.521Z,1.45
2023-04-16T13:45:21.293Z,1.13
2023-04-16T13:48:24.513Z,1.77
2023-04-16T13:51:28.078Z,1.58
2023-04-16T13:54:31.707Z,1.10
2023-04-16T13:57:36.340Z,1.65
2023-04-16T14:00:39.500Z,2.58
2023-04-16T14:03:43.254Z,1.48
2023-04-16T14:06:46.507Z,2.15
2023-04-16T14:09:49.610Z,1.15
2023-04-16T14:12:54.128Z,1.80
2023-04-16T14:15:57.295Z,1.15
2023-04-16T14:19:00.493Z,2.67
2023-04-16T14:22:03.753Z,2.67
2023-04-16T14:25:07.878Z,0.90
2023-04-16T14:28:15.514Z,1.08
2023-04-16T14:31:20.058Z,1.83
2023-04-16T14:34:23.265Z,2.20
2023-04-16T14:37:26.573Z,0.73
2023-04-16T14:40:33.750Z,0.77
2023-04-16T14:43:40.456Z,0.82
2023-04-16T14:46:43.776Z,0.98
2023-04-16T14:49:46.920Z,1.00
2023-04-16T14:52:50.124Z,1.63
2023-04-16T14:55:53.504Z,4.00
2023-04-16T14:58:58.050Z,3.33
2023-04-16T15:02:01.357Z,1.70
2023-04-16T15:05:04.780Z,1.92
2023-04-16T15:08:07.935Z,2.17
2023-04-16T15:11:11.596Z,1.88
2023-04-16T15:14:16.822Z,1.35
2023-04-16T15:17:22.226Z,2.22
2023-04-16T15:20:25.852Z,2.38
2023-04-16T15:23:29.719Z,2.95
2023-04-16T15:26:32.869Z,2.58
2023-04-16T15:29:37.531Z,2.25
2023-04-16T15:34:57.085Z,1.58
2023-04-16T15:38:00.554Z,1.27
2023-04-16T15:41:03.719Z,1.38
2023-04-16T15:44:07.238Z,2.15
2023-04-16T15:47:10.379Z,1.38
2023-04-16T15:50:14.839Z,3.05
2023-04-16T15:53:18.137Z,1.30
2023-04-16T15:56:21.338Z,1.20
2023-04-16T15:59:24.685Z,1.75
2023-04-16T16:02:29.781Z,0.90
2023-04-16T16:05:34.641Z,2.63
2023-04-16T16:08:38.360Z,1.23
2023-04-16T16:11:42.271Z,1.33
2023-04-16T16:14:45.413Z,0.82
2023-04-16T16:17:48.588Z,1.75
2023-04-16T16:20:57.994Z,2.55
2023-04-16T16:24:01.180Z,4.03
2023-04-16T16:27:04.907Z,2.65
2023-04-16T16:30:11.161Z,1.98
2023-04-16T16:33:15.022Z,3.00
2023-04-16T16:36:20.024Z,1.65
2023-04-16T16:39:25.200Z,1.35
2023-04-16T16:42:28.485Z,1.55
2023-04-16T16:45:31.760Z,1.17
2023-04-16T16:48:34.881Z,1.88
2023-04-16T16:51:39.397Z,3.65
2023-04-16T16:54:43.165Z,1.73
2023-04-16T16:57:46.345Z,8.10
2023-04-16T17:00:49.785Z,10.63
2023-04-16T17:03:53.250Z,3.75
2023-04-16T17:06:57.970Z,1.92
2023-04-16T17:10:03.729Z,2.20
2023-04-16T17:13:07.890Z,2.08
2023-04-16T17:16:11.277Z,1.55
2023-04-16T17:19:15.351Z,2.20
2023-04-16T17:22:19.944Z,2.25
2023-04-16T17:25:23.162Z,4.65
2023-04-16T17:28:27.023Z,1.42
2023-04-16T17:31:30.230Z,4.63
2023-04-16T17:34:33.414Z,5.20
2023-04-16T17:37:37.977Z,1.88
2023-04-16T17:40:41.248Z,6.45
2023-04-16T17:43:44.627Z,1.98
2023-04-16T17:46:47.794Z,2.92
2023-04-16T17:49:54.018Z,2.30
2023-04-16T17:53:03.461Z,2.97
2023-04-16T17:56:06.698Z,4.40
2023-04-16T17:59:09.855Z,2.50
2023-04-16T18:02:13.052Z,3.13
2023-04-16T18:05:16.475Z,3.78
2023-04-16T18:08:21.019Z,3.58
2023-04-16T18:11:24.331Z,3.03
2023-04-16T18:14:27.530Z,4.10
2023-04-16T18:17:30.894Z,4.30
2023-04-16T18:20:34.422Z,4.00
2023-04-16T18:23:39.072Z,4.05
2023-04-16T18:26:46.098Z,4.93
2023-04-16T18:29:51.347Z,4.18
2023-04-16T18:33:25.371Z,5.53
2023-04-16T18:36:18.152Z,4.38
2023-04-16T18:39:22.748Z,4.25
2023-04-16T18:42:27.791Z,3.47
2023-04-16T18:45:34.110Z,4.47
2023-04-16T18:48:37.711Z,3.45
2023-04-16T18:51:41.896Z,3.78
2023-04-16T18:54:46.506Z,3.70
2023-04-16T18:57:50.034Z,4.30
2023-04-16T19:00:53.947Z,4.35
2023-04-16T19:03:57.475Z,4.18
2023-04-16T19:07:00.967Z,5.03
2023-04-16T19:10:06.823Z,4.40
2023-04-16T19:13:10.131Z,4.40
2023-04-16T19:16:13.497Z,5.10
2023-04-16T19:19:17.872Z,5.35
2023-04-16T19:22:21.055Z,6.07
2023-04-16T19:25:25.786Z,6.63
2023-04-16T19:28:29.092Z,6.28
2023-04-16T19:31:32.509Z,5.40
2023-04-16T19:34:36.061Z,2.97
2023-04-16T19:37:39.385Z,3.10
2023-04-16T19:40:46.691Z,3.10
2023-04-16T19:43:50.055Z,3.20
2023-04-16T19:46:53.306Z,3.67
2023-04-16T19:49:56.570Z,3.53
2023-04-16T19:52:59.867Z,2.05
2023-04-16T19:56:04.576Z,3.60
2023-04-16T19:59:07.963Z,3.00
2023-04-16T20:02:11.366Z,2.40
2023-04-16T20:05:15.097Z,2.65
2023-04-16T20:08:18.340Z,2.60
2023-04-16T20:11:22.875Z,1.60
2023-04-16T20:14:26.124Z,3.67
2023-04-16T20:17:29.382Z,0.20
2023-04-16T20:20:35.622Z,1.92
2023-04-16T20:23:38.745Z,6.45
2023-04-16T20:26:43.542Z,4.65
2023-04-16T20:29:46.746Z,4.20
2023-04-16T20:32:49.896Z,4.85
2023-04-16T20:35:53.017Z,5.18
2023-04-16T20:38:56.148Z,5.10
2023-04-16T20:42:04.128Z,5.82
2023-04-16T20:45:08.880Z,4.68
2023-04-16T20:48:12.454Z,5.25
2023-04-16T20:51:15.826Z,4.93
2023-04-16T20:54:19.015Z,5.55
2023-04-16T20:57:23.538Z,6.22
2023-04-16T21:00:26.995Z,5.78
2023-04-16T21:03:30.357Z,5.15
2023-04-16T21:06:38.249Z,9.02
2023-04-16T21:09:41.384Z,6.88
2023-04-16T21:12:45.868Z,5.90
2023-04-16T21:15:49.201Z,6.82
2023-04-16T21:18:52.378Z,7.00
2023-04-16T21:21:55.987Z,7.07
2023-04-16T21:24:59.159Z,6.80
2023-04-16T21:28:03.593Z,7.03
2023-04-16T21:34:56.861Z,8.25
2023-04-16T21:38:00.189Z,6.15
2023-04-16T21:41:03.375Z,7.95
2023-04-16T21:44:06.627Z,11.10
2023-04-16T21:47:09.798Z,12.40
2023-04-16T21:50:14.755Z,9.50
2023-04-16T21:53:18.070Z,9.73
2023-04-16T21:56:21.422Z,9.45
2023-04-16T21:59:24.683Z,8.40
2023-04-16T22:02:28.648Z,8.95
2023-04-16T22:05:33.192Z,9.13
2023-04-16T22:08:36.296Z,9.90
2023-04-16T22:11:39.453Z,10.68
2023-04-16T22:14:52.183Z,9.25
2023-04-16T22:18:05.517Z,8.32
2023-04-16T22:21:09.974Z,10.10
2023-04-16T22:24:13.228Z,10.38
2023-04-16T22:27:16.791Z,14.15
2023-04-16T22:30:20.053Z,8.35
2023-04-16T22:33:23.277Z,10.15
2023-04-16T22:36:27.978Z,10.00
2023-04-16T22:39:31.538Z,11.27
2023-04-16T22:42:34.787Z,10.18
2023-04-16T22:45:38.294Z,11.30
2023-04-16T22:48:41.557Z,8.45
2023-04-16T22:51:46.129Z,10.80
2023-04-16T22:54:49.491Z,10.88
2023-04-16T22:57:52.652Z,10.65
2023-04-16T23:00:57.436Z,10.23
2023-04-16T23:04:01.258Z,11.13
2023-04-16T23:07:05.833Z,10.10
2023-04-16T23:10:09.699Z,9.20
2023-04-16T23:13:14.265Z,10.48
2023-04-16T23:16:17.412Z,10.65
2023-04-16T23:19:20.553Z,11.13
2023-04-16T23:22:25.123Z,9.80
2023-04-16T23:25:33.797Z,10.40
2023-04-16T23:28:37.000Z,11.15
2023-04-16T23:31:40.290Z,11.40
2023-04-16T23:34:43.724Z,12.13
2023-04-16T23:37:48.240Z,11.73
2023-04-16T23:40:51.528Z,9.88
2023-04-16T23:43:54.909Z,11.38
2023-04-16T23:46:58.223Z,12.35
2023-04-16T23:50:01.415Z,10.52
2023-04-16T23:53:06.092Z,11.30
2023-04-16T23:56:10.974Z,11.88
2023-04-16T23:59:14.334Z,10.75
